Terminal Aerodrome Forecast
Issued by NWS Mt. Holly, NJ

Home | Current Version | Previous Version | Text Only | Print | Product List | Glossary On
Versions: 1 2 3 4 5 6 7 8 9 10 11 12 13 14 15 16 17 18 19 20 21 22 23 24 25
874
FTUS41 KPHI 300538
TAFRDG
TAF
KRDG 300538Z 3006/3106 03008KT P6SM SCT250
     FM300900 VRB03KT P6SM BKN200
     FM301700 16004KT P6SM SCT080 BKN110
     FM310100 14007KT P6SM OVC040 PROB30 3101/3105 5SM -RA OVC030
     FM310500 13008KT 4SM -RA SCT030 OVC035=

USA.gov is the U.S. government's official web portal to all federal, state and local government web resources and services.